^^
Datos históricos de la estación: Murcia-Puente Tocinos
Diario Informe para Junio 11, 2019 Unidades:  Ingés    Métrico   Ambas
Diario Semanal Mensual Anual
  Máxima: Mínima: Promedio:
Temperatura: 55 °F 36.1 °F 43.9 °F
Punto de rocio: 32.2 °F 18.1 °F 23.7 °F
Humedad: 69.8% 24% 47%
Velocidad viento: 6.2mph 0mph 3.6mph
Racha viento: 13mph - -
Viento- - SO
Presión: 30.3 in 30.1 in -
Precipitación: 0 in    
 
 
Tabla de datos para Junio 11, 2019
Hora Temperatura Punto de rocio Presión Viento Velocidad viento Racha viento Humedad Intensidad lluvia(por hora) Nubes
00:04 42.3 °F 32.2 °F 30.1 in SE 3.6 mph 5.9 mph 67% 0 in
00:09 41.9 °F 31.6 °F 30.1 in Sur 3.6 mph 6.9 mph 67% 0 in
00:14 41.5 °F 31.6 °F 30.1 in SSO 3.6 mph 9.2 mph 67.8% 0 in
00:19 41.4 °F 31.1 °F 30.1 in SSO 4.6 mph 9 mph 66.8% 0 in
00:24 41.4 °F 30.7 °F 30.1 in SSO 5.4 mph 9 mph 65.6% 0 in
00:29 41.4 °F 30.2 °F 30.1 in Sur 5 mph 8.1 mph 64.3% 0 in
00:34 41.4 °F 29.8 °F 30.1 in SSE 4.7 mph 8.1 mph 63.2% 0 in
00:39 41.2 °F 29.8 °F 30.1 in Sur 5.1 mph 10.7 mph 63.8% 0 in
00:44 40.6 °F 29.7 °F 30.1 in Sur 5.4 mph 11 mph 64.6% 0 in
00:49 40.5 °F 29.7 °F 30.1 in Sur 5.7 mph 9 mph 65% 0 in
00:54 40.5 °F 29.7 °F 30.1 in SSO 5.9 mph 9.2 mph 65% 0 in
00:59 40.5 °F 29.7 °F 30.1 in SSO 5.2 mph 9 mph 65% 0 in
01:04 40.6 °F 29.5 °F 30.1 in SSO 4.7 mph 6 mph 64.1% 0 in
01:09 40.6 °F 29.5 °F 30.1 in Sur 4.1 mph 6.9 mph 64% 0 in
01:14 40.8 °F 29.3 °F 30.1 in SSO 3.6 mph 8.1 mph 63.2% 0 in
01:19 40.8 °F 28.8 °F 30.1 in SO 4.5 mph 8.1 mph 61.9% 0 in
01:24 41.2 °F 28.8 °F 30.1 in OSO 5.2 mph 8 mph 61% 0 in
01:29 41.4 °F 28.4 °F 30.1 in OSO 4.7 mph 8.1 mph 59.9% 0 in
01:34 41.4 °F 28 °F 30.1 in OSO 4.3 mph 8.1 mph 59% 0 in
01:39 41.2 °F 27.9 °F 30.1 in OSO 3.7 mph 5.8 mph 59% 0 in
01:44 41 °F 27.9 °F 30.1 in SSO 3.1 mph 6.2 mph 59% 0 in
01:49 41.2 °F 27.7 °F 30.1 in SO 3.7 mph 8.5 mph 58.4% 0 in
01:54 41.2 °F 27.3 °F 30.1 in SO 4.3 mph 9 mph 57.5% 0 in
01:59 41.2 °F 27.1 °F 30.1 in OSO 4.5 mph 8.1 mph 57% 0 in
02:04 41.2 °F 27.1 °F 30.1 in SO 4.7 mph 6 mph 57% 0 in
02:09 41.2 °F 27 °F 30.1 in SO 3.8 mph 6 mph 56.9% 0 in
02:14 41.2 °F 26.8 °F 30.1 in SO 3.1 mph 6 mph 56% 0 in
02:19 41.2 °F 26.8 °F 30.2 in SO 3.1 mph 5 mph 56.2% 0 in
02:24 41.2 °F 27.1 °F 30.2 in SSO 3.1 mph 5 mph 57.2% 0 in
02:29 40.8 °F 27.3 °F 30.2 in Sur 2.4 mph 5 mph 58.2% 0 in
02:34 40.6 °F 28 °F 30.2 in SSE 2 mph 3.6 mph 60.3% 0 in
02:39 40.3 °F 28.4 °F 30.2 in ESE 1.7 mph 4 mph 62.2% 0 in
02:44 39.7 °F 28.2 °F 30.2 in SE 1.4 mph 3.6 mph 63.2% 0 in
02:49 39.4 °F 27.7 °F 30.2 in OSO 1.6 mph 4.6 mph 62.6% 0 in
02:54 39.2 °F 28.2 °F 30.2 in OSO 1.8 mph 5 mph 64.4% 0 in
02:59 39 °F 28.4 °F 30.2 in OSO 1.8 mph 4.6 mph 65.5% 0 in
03:04 38.7 °F 28 °F 30.2 in SO 1.8 mph 5.2 mph 65.2% 0 in
03:09 38.7 °F 27.7 °F 30.2 in SO 2.4 mph 5 mph 64.4% 0 in
03:14 38.8 °F 27.7 °F 30.2 in SO 2.9 mph 4.3 mph 64.1% 0 in
03:19 38.8 °F 26.8 °F 30.2 in OSO 2.3 mph 5 mph 61.7% 0 in
03:24 39 °F 26.2 °F 30.2 in SO 1.8 mph 6.9 mph 59.5% 0 in
03:29 39.4 °F 25.9 °F 30.2 in SO 3 mph 7 mph 58.3% 0 in
03:34 39.4 °F 25.9 °F 30.2 in OSO 4 mph 6 mph 58.1% 0 in
03:39 39.4 °F 26.8 °F 30.2 in SSO 3 mph 5.9 mph 60.3% 0 in
03:44 39 °F 27.9 °F 30.2 in SSE 2.4 mph 6 mph 64% 0 in
03:49 38.5 °F 28 °F 30.2 in Sur 2.8 mph 6 mph 66.1% 0 in
03:54 37.9 °F 28 °F 30.2 in Sur 3.1 mph 5.2 mph 67.4% 0 in
03:59 37.6 °F 28.2 °F 30.2 in Sur 3.1 mph 5 mph 68.5% 0 in
04:04 37.2 °F 28 °F 30.2 in Sur 3.1 mph 5.8 mph 69% 0 in
04:09 37.2 °F 28 °F 30.2 in Sur 3 mph 6 mph 69.1% 0 in
04:14 37.2 °F 28 °F 30.2 in Sur 2.9 mph 5 mph 69% 0 in
04:19 37.2 °F 28.4 °F 30.2 in Sur 3 mph 5 mph 69.8% 0 in
04:24 37.4 °F 28.2 °F 30.2 in Sur 3.1 mph 5 mph 69.2% 0 in
04:29 37.6 °F 28.2 °F 30.2 in Sur 3 mph 5 mph 69% 0 in
04:34 37.8 °F 28.2 °F 30.2 in Sur 2.9 mph 4.7 mph 68.6% 0 in
04:39 37.8 °F 28 °F 30.2 in Sur 2.9 mph 5 mph 68% 0 in
04:44 37.8 °F 28 °F 30.2 in Sur 2.9 mph 5 mph 67.8% 0 in
04:49 37.9 °F 28 °F 30.2 in Sur 2.3 mph 4.6 mph 67.3% 0 in
04:54 37.9 °F 27.9 °F 30.2 in Sur 1.8 mph 5 mph 66.8% 0 in
04:59 38.1 °F 27.5 °F 30.2 in SSO 1.9 mph 5.2 mph 65.6% 0 in
05:04 37.9 °F 27.1 °F 30.2 in SO 2 mph 5.9 mph 65% 0 in
05:09 37.8 °F 27 °F 30.2 in OSO 2.9 mph 6 mph 65% 0 in
05:14 37.6 °F 26.8 °F 30.2 in OSO 3.6 mph 6 mph 64.6% 0 in
05:19 37.6 °F 26.2 °F 30.2 in SO 3.2 mph 6.9 mph 63.3% 0 in
05:24 37.6 °F 25.5 °F 30.2 in SO 2.9 mph 7 mph 61.6% 0 in
05:29 37.8 °F 25.5 °F 30.2 in SO 3.3 mph 6 mph 60.9% 0 in
05:34 37.9 °F 25.3 °F 30.2 in SO 3.6 mph 5.2 mph 60% 0 in
05:39 37.9 °F 25.3 °F 30.2 in SSO 3.6 mph 5.2 mph 60% 0 in
05:44 37.9 °F 25.3 °F 30.2 in SSO 3.6 mph 5 mph 60% 0 in
05:49 37.9 °F 25 °F 30.2 in SO 3.6 mph 6.2 mph 59.3% 0 in
05:54 37.9 °F 24.6 °F 30.2 in SO 3.6 mph 6.9 mph 58.2% 0 in
05:59 38.1 °F 24.1 °F 30.2 in SO 3.9 mph 7 mph 56.7% 0 in
06:04 38.3 °F 24.3 °F 30.2 in SO 4 mph 6 mph 56.8% 0 in
06:09 38.3 °F 24.3 °F 30.2 in SO 3.1 mph 6 mph 56.6% 0 in
06:14 38.5 °F 23.9 °F 30.2 in SSO 2.4 mph 6 mph 55.8% 0 in
06:19 38.5 °F 23.7 °F 30.2 in SSO 3 mph 6 mph 55% 0 in
06:24 38.5 °F 23.7 °F 30.2 in SO 3.6 mph 6 mph 55% 0 in
06:29 38.7 °F 23.4 °F 30.2 in OSO 3.6 mph 5.9 mph 54.1% 0 in
06:34 38.7 °F 23.4 °F 30.2 in SO 3.6 mph 6 mph 54% 0 in
06:39 38.5 °F 23.2 °F 30.2 in SO 3.6 mph 6.2 mph 53.6% 0 in
06:44 38.5 °F 23.2 °F 30.2 in SO 3.6 mph 6.9 mph 53.6% 0 in
06:49 38.5 °F 22.8 °F 30.2 in SO 4 mph 7.4 mph 53% 0 in
06:54 38.5 °F 23 °F 30.2 in SO 4.3 mph 7.6 mph 53.3% 0 in
06:59 38.5 °F 22.8 °F 30.2 in OSO 4.3 mph 8.1 mph 53% 0 in
07:04 38.5 °F 22.8 °F 30.2 in OSO 4.3 mph 8 mph 53% 0 in
07:09 38.5 °F 22.6 °F 30.2 in OSO 4.3 mph 7 mph 53% 0 in
07:14 38.1 °F 22.6 °F 30.2 in Oeste 4.3 mph 6.2 mph 53.4% 0 in
07:19 37.6 °F 22.6 °F 30.2 in Oeste 3.9 mph 7.4 mph 54.5% 0 in
07:24 37 °F 22.5 °F 30.2 in Oeste 3.6 mph 7 mph 55% 0 in
07:29 36.9 °F 22.5 °F 30.2 in OSO 4.2 mph 7.4 mph 55.8% 0 in
07:34 36.9 °F 22.3 °F 30.2 in OSO 4.7 mph 7 mph 55% 0 in
07:39 36.9 °F 22.3 °F 30.2 in OSO 4.3 mph 7 mph 55% 0 in
07:44 36.9 °F 22.3 °F 30.2 in OSO 4 mph 6 mph 55.3% 0 in
07:49 36.9 °F 22.3 °F 30.2 in OSO 3.4 mph 5.2 mph 55% 0 in
07:54 36.9 °F 22.3 °F 30.2 in OSO 2.9 mph 5 mph 55% 0 in
07:59 36.9 °F 22.3 °F 30.2 in OSO 2.9 mph 5 mph 55% 0 in
08:04 36.9 °F 22.3 °F 30.2 in OSO 2.9 mph 3.6 mph 55% 0 in
08:09 36.9 °F 22.5 °F 30.2 in OSO 2.4 mph 4 mph 55.7% 0 in
08:14 36.9 °F 22.6 °F 30.2 in OSO 2 mph 3 mph 56.1% 0 in
08:19 36.9 °F 22.8 °F 30.2 in OSO 0.9 mph 2 mph 56.5% 0 in
08:24 36.7 °F 22.6 °F 30.2 in Calm   3.6 mph 56.6% 0 in
08:29 36.5 °F 22.5 °F 30.2 in OSO 0.7 mph 4 mph 56.5% 0 in
08:34 36.3 °F 22.5 °F 30.2 in OSO 1.4 mph 4 mph 57% 0 in
08:39 36.3 °F 22.5 °F 30.2 in OSO 1.7 mph 4 mph 57% 0 in
08:44 36.1 °F 22.5 °F 30.2 in Oeste 2 mph 4.7 mph 57% 0 in
08:49 36.1 °F 22.6 °F 30.2 in Oeste 2.2 mph 5 mph 57.4% 0 in
08:54 36.1 °F 22.5 °F 30.2 in Oeste 2.4 mph 5.4 mph 57% 0 in
08:59 36.3 °F 22.1 °F 30.2 in Oeste 2.9 mph 6.2 mph 56% 0 in
09:04 36.7 °F 21.7 °F 30.2 in Oeste 3.1 mph 6.2 mph 54.8% 0 in
09:09 36.9 °F 21.6 °F 30.2 in Oeste 3.6 mph 6 mph 53.8% 0 in
09:14 36.9 °F 21.2 °F 30.2 in ONO 4 mph 6 mph 52.7% 0 in
09:19 37 °F 21 °F 30.2 in ONO 3.8 mph 6 mph 52% 0 in
09:24 37 °F 20.8 °F 30.2 in ONO 3.6 mph 5.9 mph 51.6% 0 in
09:29 37.2 °F 20.7 °F 30.2 in Oeste 3.6 mph 6.9 mph 51% 0 in
09:34 37.2 °F 20.8 °F 30.2 in Oeste 3.6 mph 7 mph 51% 0 in
09:39 37.6 °F 21 °F 30.2 in Oeste 3.6 mph 6 mph 51% 0 in
09:44 37.8 °F 21.6 °F 30.2 in Oeste 3.6 mph 5 mph 51.6% 0 in
09:49 38.1 °F 21.7 °F 30.2 in ONO 3.2 mph 5 mph 51.1% 0 in
09:54 38.5 °F 21.9 °F 30.2 in ONO 2.9 mph 5 mph 51% 0 in
09:59 39 °F 21.9 °F 30.2 in OSO 2.6 mph 7.4 mph 50.1% 0 in
10:04 39.7 °F 21.2 °F 30.3 in SSO 2.4 mph 9.7 mph 46.9% 0 in
10:09 40.5 °F 21.2 °F 30.3 in SO 4 mph 10 mph 45.7% 0 in
10:14 40.8 °F 21 °F 30.3 in SO 5.2 mph 9.2 mph 44.7% 0 in
10:19 41.2 °F 20.8 °F 30.3 in SO 5.3 mph 11.5 mph 43.7% 0 in
10:24 41.4 °F 21 °F 30.3 in SO 5.4 mph 12.7 mph 44% 0 in
10:29 41.4 °F 20.7 °F 30.3 in OSO 5.7 mph 13 mph 43.4% 0 in
10:34 41.4 °F 21 °F 30.3 in OSO 5.9 mph 11 mph 44% 0 in
10:39 41.4 °F 21 °F 30.3 in OSO 5.7 mph 9 mph 44% 0 in
10:44 41.5 °F 21 °F 30.3 in OSO 5.4 mph 8 mph 43.5% 0 in
10:49 42.1 °F 21 °F 30.3 in SO 4.4 mph 7 mph 42.7% 0 in
10:54 42.4 °F 20.7 °F 30.3 in OSO 3.6 mph 9.2 mph 41.6% 0 in
10:59 42.6 °F 20.5 °F 30.3 in OSO 4.6 mph 9 mph 41% 0 in
11:04 43 °F 20.5 °F 30.3 in OSO 5.2 mph 8.1 mph 40.2% 0 in
11:09 43.2 °F 20.5 °F 30.3 in OSO 4.9 mph 9.2 mph 39.9% 0 in
11:14 43.5 °F 20.3 °F 30.3 in OSO 4.7 mph 9.2 mph 39% 0 in
11:19 43.9 °F 20.3 °F 30.3 in SO 5 mph 11.5 mph 38.5% 0 in
11:24 44.1 °F 19.9 °F 30.3 in SO 5.2 mph 12 mph 37.8% 0 in
11:29 44.4 °F 20.1 °F 30.3 in SO 5.8 mph 11.5 mph 37.6% 0 in
11:34 44.6 °F 19.9 °F 30.3 in SO 6.2 mph 12 mph 37% 0 in
11:39 44.8 °F 20.1 °F 30.3 in SO 6 mph 10.4 mph 36.9% 0 in
11:44 45 °F 19.6 °F 30.3 in SSO 5.9 mph 10 mph 36% 0 in
11:49 45.3 °F 19.9 °F 30.3 in SSO 5.6 mph 9.2 mph 36% 0 in
11:54 45.9 °F 20.3 °F 30.3 in OSO 5.4 mph 9 mph 36% 0 in
11:59 46 °F 19.6 °F 30.3 in OSO 4.7 mph 10.4 mph 34.5% 0 in
12:04 45.9 °F 19.8 °F 30.3 in OSO 4.3 mph 10.4 mph 35% 0 in
12:09 45.9 °F 19.8 °F 30.3 in OSO 5 mph 10 mph 35% 0 in
12:14 46.2 °F 19.6 °F 30.3 in Oeste 5.4 mph 9 mph 34.5% 0 in
12:19 46.4 °F 19.8 °F 30.3 in Oeste 5 mph 8 mph 34.4% 0 in
12:24 46.8 °F 20.1 °F 30.3 in SO 4.7 mph 8.5 mph 34.5% 0 in
12:29 46.8 °F 19.8 °F 30.3 in SO 4.7 mph 10.4 mph 34% 0 in
12:34 46.8 °F 19.9 °F 30.3 in SO 4.7 mph 10 mph 34% 0 in
12:39 47.3 °F 20.3 °F 30.3 in SSO 4.5 mph 9 mph 33.9% 0 in
12:44 47.5 °F 20.1 °F 30.3 in SSO 4.3 mph 10.2 mph 33.5% 0 in
12:49 47.7 °F 19.9 °F 30.3 in SSO 4.8 mph 10.4 mph 33% 0 in
12:54 47.7 °F 19.9 °F 30.3 in OSO 5.2 mph 9 mph 33% 0 in
12:59 47.8 °F 19.8 °F 30.3 in Oeste 5.2 mph 10.2 mph 32.5% 0 in
13:04 48 °F 19.6 °F 30.3 in OSO 5.2 mph 10.4 mph 32.2% 0 in
13:09 48.2 °F 19.8 °F 30.2 in OSO 5.3 mph 10 mph 32% 0 in
13:14 48.6 °F 19.8 °F 30.2 in SO 5.4 mph 10.7 mph 31.6% 0 in
13:19 48.7 °F 19.4 °F 30.2 in SSO 5 mph 11.8 mph 31% 0 in
13:24 48.7 °F 19.4 °F 30.2 in SO 4.7 mph 12 mph 31% 0 in
13:29 48.9 °F 19.6 °F 30.2 in SO 4.5 mph 8.1 mph 30.8% 0 in
13:34 49.3 °F 19.4 °F 30.2 in SO 4.3 mph 8 mph 30.3% 0 in
13:39 49.5 °F 19.4 °F 30.2 in OSO 3.9 mph 8.1 mph 30% 0 in
13:44 49.6 °F 19.4 °F 30.2 in SO 3.6 mph 8.1 mph 30% 0 in
13:49 49.8 °F 19.8 °F 30.2 in SO 3.6 mph 8.1 mph 30.2% 0 in
13:54 50 °F 19.8 °F 30.2 in SO 3.6 mph 8.1 mph 30% 0 in
13:59 50.2 °F 19.9 °F 30.2 in SSO 4.6 mph 8.1 mph 30% 0 in
14:04 50.2 °F 19.9 °F 30.2 in SO 5.2 mph 8 mph 30% 0 in
14:09 50.4 °F 19.8 °F 30.2 in Oeste 4.9 mph 7 mph 29.4% 0 in
14:14 50.5 °F 19.8 °F 30.2 in Oeste 4.7 mph 7 mph 29.6% 0 in
14:19 50.7 °F 19.6 °F 30.2 in SO 4.1 mph 8.1 mph 29.1% 0 in
14:24 50.7 °F 19.6 °F 30.2 in SO 3.6 mph 8 mph 29% 0 in
14:29 50.9 °F 19.8 °F 30.2 in OSO 3.3 mph 7.4 mph 29% 0 in
14:34 51.1 °F 19.9 °F 30.2 in ONO 3.1 mph 7 mph 29% 0 in
14:39 51.4 °F 20.1 °F 30.2 in SO 3 mph 8.1 mph 29% 0 in
14:44 51.6 °F 20.3 °F 30.2 in SSO 2.9 mph 8 mph 29% 0 in
14:49 52.2 °F 19.9 °F 30.2 in ONO 2.9 mph 8.5 mph 28.1% 0 in
14:54 52.2 °F 19.9 °F 30.2 in NO 2.9 mph 9 mph 28% 0 in
14:59 52.3 °F 20.1 °F 30.2 in NNO 3.5 mph 8 mph 28% 0 in
15:04 52.3 °F 20.3 °F 30.2 in NNE 4 mph 6 mph 28.1% 0 in
15:09 52.5 °F 20.3 °F 30.2 in North 3.1 mph 5 mph 28% 0 in
15:14 52.9 °F 20.3 °F 30.2 in ONO 2.4 mph 5.2 mph 27.7% 0 in
15:19 53.1 °F 19.9 °F 30.2 in SO 2.7 mph 7.4 mph 27.1% 0 in
15:24 53.1 °F 19.9 °F 30.2 in SSO 2.9 mph 8.5 mph 27% 0 in
15:29 53.1 °F 19.9 °F 30.2 in OSO 3.7 mph 9 mph 27% 0 in
15:34 53.2 °F 20.1 °F 30.2 in SO 4.3 mph 9 mph 27% 0 in
15:39 53.2 °F 20.1 °F 30.2 in SO 4.3 mph 7 mph 27% 0 in
15:44 53.4 °F 20.1 °F 30.2 in Oeste 4.3 mph 6.2 mph 27% 0 in
15:49 53.2 °F 20.1 °F 30.2 in Oeste 3.9 mph 6.9 mph 27% 0 in
15:54 53.2 °F 20.1 °F 30.2 in Oeste 3.6 mph 7 mph 27% 0 in
15:59 53.6 °F 20.5 °F 30.2 in OSO 3.3 mph 6.9 mph 27% 0 in
16:04 54 °F 20.7 °F 30.2 in Sur 3.1 mph 7 mph 27% 0 in
16:09 54.1 °F 19.9 °F 30.2 in OSO 3.1 mph 6.4 mph 26% 0 in
16:14 54.3 °F 19.8 °F 30.2 in Oeste 3.1 mph 7 mph 25.7% 0 in
16:19 54.3 °F 19.8 °F 30.2 in SO 3.4 mph 6 mph 25.6% 0 in
16:24 54.7 °F 19.9 °F 30.2 in OSO 3.6 mph 6 mph 25.5% 0 in
16:29 54.9 °F 19.9 °F 30.2 in SO 2.7 mph 5 mph 25.3% 0 in
16:34 55 °F 19.9 °F 30.2 in SO 2 mph 6.2 mph 25.2% 0 in
16:39 55 °F 19 °F 30.2 in SO 2.6 mph 6 mph 24.2% 0 in
16:44 54.9 °F 19.8 °F 30.2 in SSO 3.1 mph 6.2 mph 25% 0 in
16:49 54.9 °F 19.6 °F 30.2 in SSO 3.1 mph 6 mph 24.9% 0 in
16:54 54.9 °F 18.7 °F 30.2 in SO 3.1 mph 6 mph 24% 0 in
16:59 54.9 °F 19 °F 30.2 in SO 2.7 mph 6 mph 24.2% 0 in
17:04 54.9 °F 19.2 °F 30.2 in SSO 2.4 mph 7.4 mph 24.5% 0 in
17:09 54.5 °F 18.9 °F 30.2 in Sur 3.4 mph 7.6 mph 24.5% 0 in
17:14 54.3 °F 18.7 °F 30.2 in SSO 4 mph 8.1 mph 24.5% 0 in
17:19 54.3 °F 18.9 °F 30.2 in SSO 4.2 mph 8 mph 24.7% 0 in
17:24 54.3 °F 18.3 °F 30.2 in Sur 4.3 mph 6 mph 24.1% 0 in
17:29 54.3 °F 18.1 °F 30.2 in Sur 3.7 mph 5 mph 24% 0 in
17:34 54.3 °F 18.9 °F 30.2 in Sur 3.1 mph 5 mph 24.7% 0 in
17:39 54.3 °F 19.6 °F 30.2 in Sur 3 mph 5.9 mph 25.4% 0 in
17:44 54.1 °F 19.4 °F 30.2 in Sur 2.9 mph 6 mph 25.4% 0 in
17:49 54.1 °F 19.9 °F 30.2 in SSE 3 mph 5.2 mph 26% 0 in
17:54 54 °F 20.3 °F 30.2 in Sur 3.1 mph 5.2 mph 26.6% 0 in
17:59 53.6 °F 20.3 °F 30.2 in Sur 3.7 mph 5.9 mph 27% 0 in
18:04 53.2 °F 19.9 °F 30.2 in Sur 4 mph 6 mph 27% 0 in
18:09 52.9 °F 20.7 °F 30.2 in Sur 3.8 mph 6 mph 28.1% 0 in
18:14 52.7 °F 21.6 °F 30.2 in Sur 3.6 mph 5 mph 29.4% 0 in
18:19 52.3 °F 21.9 °F 30.2 in Sur 3.2 mph 5 mph 30% 0 in
18:24 52.2 °F 23 °F 30.2 in SSE 2.9 mph 6.9 mph 31.9% 0 in
18:29 51.4 °F 23.7 °F 30.2 in SSE 3 mph 7 mph 33.6% 0 in
18:34 51.1 °F 24.1 °F 30.2 in SE 3.1 mph 5 mph 34.6% 0 in
18:39 50.4 °F 24.1 °F 30.2 in SE 2.5 mph 6.9 mph 35.5% 0 in
18:44 49.5 °F 23.5 °F 30.2 in SE 2 mph 8.1 mph 36% 0 in
18:49 48.7 °F 23.7 °F 30.3 in SSE 3.5 mph 8 mph 37.2% 0 in
18:54 48.4 °F 23.9 °F 30.3 in SSE 4.7 mph 7 mph 38% 0 in
18:59 48.4 °F 24.3 °F 30.3 in SSE 4.3 mph 7 mph 38.8% 0 in
19:04 48 °F 24.6 °F 30.3 in SSE 4 mph 6 mph 39.4% 0 in
19:09 48 °F 24.3 °F 30.3 in SSE 3.8 mph 6 mph 39.1% 0 in
19:14 48 °F 24.4 °F 30.3 in SSE 3.6 mph 6 mph 39.4% 0 in
19:19 47.8 °F 24.8 °F 30.3 in SE 3.4 mph 5.8 mph 40% 0 in
19:24 47.7 °F 24.8 °F 30.3 in SE 3.1 mph 6 mph 40.5% 0 in
19:29 47.3 °F 25 °F 30.3 in SE 2.2 mph 4 mph 41.3% 0 in
19:34 46.9 °F 24.4 °F 30.3 in SE 1.4 mph 3.5 mph 40.9% 0 in
19:39 46.9 °F 24.4 °F 30.3 in SE 1.7 mph 3.6 mph 40.9% 0 in
19:44 46.9 °F 23.7 °F 30.3 in SE 2 mph 4 mph 39.7% 0 in
19:49 46.9 °F 24.3 °F 30.3 in SSE 1.9 mph 4.6 mph 40.7% 0 in
19:54 46.8 °F 25 °F 30.3 in Oeste 1.8 mph 5 mph 42% 0 in
19:59 46.4 °F 24.4 °F 30.3 in Oeste 2.5 mph 5 mph 42% 0 in
20:04 46 °F 24.6 °F 30.3 in ONO 2.9 mph 4 mph 42.6% 0 in
20:09 46 °F 25 °F 30.3 in Oeste 2.4 mph 4.6 mph 43.4% 0 in
20:14 45.9 °F 25.2 °F 30.3 in OSO 2 mph 5.8 mph 44% 0 in
20:19 46 °F 24.8 °F 30.3 in SO 2.9 mph 6.9 mph 43% 0 in
20:24 46.2 °F 24.6 °F 30.3 in SSO 3.6 mph 7 mph 42.2% 0 in
20:29 46.6 °F 24.8 °F 30.3 in Sur 3.6 mph 6 mph 42.1% 0 in
20:34 46.4 °F 24.1 °F 30.3 in SSE 3.6 mph 6.9 mph 41.4% 0 in
20:39 45.9 °F 25.3 °F 30.3 in SE 3.6 mph 7 mph 44.5% 0 in
20:44 44.8 °F 25.5 °F 30.3 in SE 3.6 mph 7 mph 46.6% 0 in
20:49 44.2 °F 25.5 °F 30.3 in SE 3.2 mph 5 mph 47.6% 0 in
20:54 44.1 °F 25.5 °F 30.3 in Sur 2.9 mph 3.6 mph 48% 0 in
20:59 44.1 °F 25.7 °F 30.3 in Sur 2.4 mph 4.6 mph 48.2% 0 in
21:04 44.1 °F 25.3 °F 30.3 in Sur 2 mph 5 mph 47.3% 0 in
21:09 44.2 °F 25.3 °F 30.3 in OSO 2 mph 5.8 mph 47% 0 in
21:14 44.2 °F 25.3 °F 30.3 in OSO 2 mph 6 mph 47% 0 in
21:19 44.6 °F 25.7 °F 30.3 in OSO 2.9 mph 6 mph 47% 0 in
21:24 44.8 °F 25.9 °F 30.3 in OSO 3.6 mph 5.2 mph 47% 0 in
21:29 45 °F 26.1 °F 30.3 in SSE 3.3 mph 5.9 mph 47.5% 0 in
21:34 44.2 °F 26.2 °F 30.3 in SSE 3.1 mph 6.9 mph 49% 0 in
21:39 43.3 °F 26.1 °F 30.3 in SE 3.7 mph 9.2 mph 50.5% 0 in
21:44 42.6 °F 26.2 °F 30.3 in SSE 4.3 mph 9.7 mph 52.1% 0 in
21:49 42.1 °F 26.4 °F 30.3 in SSE 4.8 mph 10 mph 53.6% 0 in
21:54 41.5 °F 26.6 °F 30.3 in SSE 5.2 mph 10 mph 54.8% 0 in
21:59 41.5 °F 27 °F 30.3 in SSE 5.3 mph 10.4 mph 56% 0 in
22:04 41.5 °F 27 °F 30.3 in SSE 5.4 mph 9.2 mph 56% 0 in
22:09 41.7 °F 27.1 °F 30.3 in Sur 5.4 mph 9.2 mph 56% 0 in
22:14 42.1 °F 27 °F 30.3 in SSO 5.4 mph 9 mph 55% 0 in
22:19 42.3 °F 27 °F 30.3 in SSO 5.7 mph 9 mph 54.5% 0 in
22:24 42.4 °F 27.1 °F 30.3 in SSO 5.9 mph 8.1 mph 54% 0 in
22:29 42.8 °F 26.8 °F 30.3 in SSO 5.2 mph 8 mph 53.1% 0 in
22:34 43 °F 27 °F 30.3 in SSO 4.7 mph 7 mph 53% 0 in
22:39 43.2 °F 26.8 °F 30.3 in SSO 4.3 mph 6.9 mph 52.2% 0 in
22:44 43.3 °F 26.8 °F 30.3 in SO 4 mph 8.1 mph 52% 0 in
22:49 43.3 °F 26.4 °F 30.3 in OSO 4.2 mph 8 mph 51% 0 in
22:54 43.3 °F 26.4 °F 30.3 in OSO 4.3 mph 6 mph 51% 0 in
22:59 43.3 °F 26.4 °F 30.3 in SO 3.9 mph 5.8 mph 51% 0 in
23:04 43.3 °F 26.6 °F 30.3 in SO 3.6 mph 6 mph 51.2% 0 in
23:09 43.3 °F 27 °F 30.3 in SO 3.6 mph 5.2 mph 52% 0 in
23:14 43.5 °F 27 °F 30.3 in SO 3.6 mph 5 mph 52% 0 in
23:19 43.3 °F 26.6 °F 30.3 in OSO 3.2 mph 5 mph 51.5% 0 in
23:24 43 °F 26.6 °F 30.3 in OSO 2.9 mph 5 mph 52.2% 0 in
23:29 42.6 °F 26.6 °F 30.3 in OSO 2.4 mph 4 mph 53% 0 in
23:34 42.3 °F 26.8 °F 30.3 in OSO 2 mph 4 mph 53.8% 0 in
23:39 42.1 °F 26.6 °F 30.3 in OSO 2 mph 5.9 mph 54% 0 in
23:44 41.7 °F 26.4 °F 30.3 in OSO 2 mph 6 mph 54.2% 0 in
23:49 41.7 °F 26.4 °F 30.3 in OSO 2.6 mph 6 mph 54.4% 0 in
23:54 41.7 °F 26.6 °F 30.3 in SO 3.1 mph 6.4 mph 54.8% 0 in
23:59 41.7 °F 26.4 °F 30.3 in SO 3.7 mph 7.4 mph 54.3% 0 in
Murcia-Puente Tocinos, España
Compliments of Weather Underground - 3 mb

La estación de MeteoMurcia.com, publica sus datos en los siguientes proyectos:

Weather Underground PWS IMURCIAP2 Meteoclimatic www.awekas.at

W3Counter
Web Analytics